createdAt,value
2018-07-17T00:01:52.127Z,23.03
2018-07-17T00:06:44.683Z,22.97
2018-07-17T00:11:37.359Z,22.99
2018-07-17T00:16:29.942Z,22.95
2018-07-17T00:21:22.545Z,22.90
2018-07-17T00:26:15.105Z,22.89
2018-07-17T00:31:07.694Z,22.86
2018-07-17T00:36:00.682Z,22.84
2018-07-17T00:40:53.367Z,22.83
2018-07-17T00:45:45.964Z,22.82
2018-07-17T00:50:38.570Z,22.72
2018-07-17T00:55:31.156Z,22.64
2018-07-17T01:00:56.428Z,22.62
2018-07-17T01:10:59.161Z,22.48
2018-07-17T01:15:51.835Z,22.44
2018-07-17T01:20:44.452Z,22.37
2018-07-17T01:25:36.981Z,22.39
2018-07-17T01:30:29.482Z,22.38
2018-07-17T01:35:22.175Z,22.37
2018-07-17T01:40:14.745Z,22.35
2018-07-17T01:45:07.370Z,22.37
2018-07-17T01:49:59.965Z,22.35
2018-07-17T01:54:52.561Z,22.32
2018-07-17T01:59:45.173Z,22.33
2018-07-17T02:04:37.848Z,22.33
2018-07-17T02:09:30.644Z,22.30
2018-07-17T02:14:23.260Z,22.24
2018-07-17T02:19:15.811Z,22.15
2018-07-17T02:24:08.390Z,22.11
2018-07-17T02:29:00.918Z,22.02
2018-07-17T02:33:53.605Z,21.93
2018-07-17T02:38:46.186Z,21.90
2018-07-17T02:43:38.888Z,21.85
2018-07-17T02:48:31.429Z,21.83
2018-07-17T02:53:23.969Z,21.82
2018-07-17T02:58:16.568Z,21.81
2018-07-17T03:03:09.208Z,21.78
2018-07-17T03:08:01.889Z,21.80
2018-07-17T03:12:54.485Z,21.80
2018-07-17T03:17:47.032Z,21.83
2018-07-17T03:22:39.795Z,21.76
2018-07-17T03:27:32.358Z,21.76
2018-07-17T03:32:24.915Z,21.74
2018-07-17T03:37:17.445Z,21.75
2018-07-17T03:42:10.022Z,21.76
2018-07-17T03:47:02.625Z,21.78
2018-07-17T03:51:55.248Z,21.82
2018-07-17T03:56:47.838Z,21.84
2018-07-17T04:01:40.496Z,21.87
2018-07-17T04:06:33.102Z,21.88
2018-07-17T04:11:25.792Z,21.89
2018-07-17T04:16:18.346Z,21.91
2018-07-17T04:21:11.111Z,21.91
2018-07-17T04:26:03.668Z,21.93
2018-07-17T04:30:56.308Z,21.92
2018-07-17T04:35:48.938Z,21.91
2018-07-17T04:40:41.439Z,21.93
2018-07-17T04:45:34.035Z,21.98
2018-07-17T04:50:26.822Z,22.00
2018-07-17T04:55:19.361Z,22.01
2018-07-17T05:00:12.048Z,22.03
2018-07-17T05:05:05.060Z,22.08
2018-07-17T05:09:57.842Z,22.11
2018-07-17T05:14:50.512Z,22.14
2018-07-17T05:19:43.116Z,22.13
2018-07-17T05:24:35.660Z,22.16
2018-07-17T05:29:28.258Z,22.18
2018-07-17T05:34:20.871Z,22.21
2018-07-17T05:39:13.398Z,22.23
2018-07-17T05:44:06.027Z,22.25
2018-07-17T05:48:58.624Z,22.27
2018-07-17T05:53:51.305Z,22.30
2018-07-17T05:58:43.897Z,22.33
2018-07-17T06:03:36.522Z,22.35
2018-07-17T06:08:29.161Z,22.43
2018-07-17T06:13:21.791Z,22.48
2018-07-17T06:18:14.339Z,22.54
2018-07-17T06:23:06.982Z,22.59
2018-07-17T06:27:59.672Z,22.68
2018-07-17T06:32:52.220Z,22.76
2018-07-17T06:37:44.763Z,22.85
2018-07-17T06:42:37.343Z,22.96
2018-07-17T06:47:29.960Z,23.12
2018-07-17T06:52:22.522Z,23.23
2018-07-17T06:57:15.191Z,23.31
2018-07-17T07:07:32.436Z,23.54
2018-07-17T07:12:25.099Z,23.65
2018-07-17T07:17:17.646Z,23.77
2018-07-17T07:22:10.302Z,23.91
2018-07-17T07:27:02.999Z,24.26
2018-07-17T07:31:55.513Z,24.69
2018-07-17T07:36:48.228Z,25.16
2018-07-17T07:41:40.896Z,25.64
2018-07-17T07:46:33.813Z,25.93
2018-07-17T07:51:26.494Z,26.41
2018-07-17T07:56:19.070Z,26.71
2018-07-17T08:01:11.688Z,26.79
2018-07-17T08:06:04.321Z,26.95
2018-07-17T08:10:56.995Z,27.31
2018-07-17T08:15:49.582Z,27.53
2018-07-17T08:20:42.221Z,27.63
2018-07-17T08:25:34.839Z,27.51
2018-07-17T08:30:27.447Z,27.33
2018-07-17T08:35:20.028Z,27.29
2018-07-17T08:40:12.809Z,27.15
2018-07-17T08:45:05.431Z,27.07
2018-07-17T08:49:58.053Z,27.14
2018-07-17T08:54:50.670Z,27.33
2018-07-17T08:59:43.306Z,27.50
2018-07-17T09:04:35.845Z,27.74
2018-07-17T09:09:28.394Z,27.75
2018-07-17T09:14:21.199Z,27.70
2018-07-17T09:19:13.717Z,27.75
2018-07-17T09:24:06.927Z,28.12
2018-07-17T09:28:59.523Z,28.48
2018-07-17T09:33:52.182Z,28.85
2018-07-17T09:38:44.833Z,28.97
2018-07-17T09:43:37.671Z,29.12
2018-07-17T09:48:30.329Z,29.38
2018-07-17T09:53:22.869Z,29.62
2018-07-17T09:58:15.431Z,29.78
2018-07-17T10:03:08.031Z,30.01
2018-07-17T10:08:00.770Z,30.22
2018-07-17T10:12:53.658Z,30.42
2018-07-17T10:17:46.295Z,30.57
2018-07-17T10:22:39.256Z,30.75
2018-07-17T10:27:31.818Z,30.85
2018-07-17T10:32:24.329Z,30.99
2018-07-17T10:37:17.150Z,31.03
2018-07-17T10:42:09.911Z,31.12
2018-07-17T10:47:02.507Z,31.27
2018-07-17T10:51:55.260Z,31.45
2018-07-17T10:56:47.843Z,31.56
2018-07-17T11:01:40.612Z,31.57
2018-07-17T11:06:33.340Z,31.66
2018-07-17T11:11:25.878Z,31.76
2018-07-17T11:16:18.441Z,31.94
2018-07-17T11:21:10.966Z,32.06
2018-07-17T11:26:03.533Z,32.06
2018-07-17T11:30:56.238Z,32.20
2018-07-17T11:35:48.785Z,32.36
2018-07-17T11:40:41.297Z,32.44
2018-07-17T11:45:33.894Z,32.42
2018-07-17T11:50:26.530Z,32.46
2018-07-17T11:55:19.244Z,32.62
2018-07-17T12:00:11.949Z,32.77
2018-07-17T12:05:04.734Z,32.91
2018-07-17T12:09:57.352Z,32.99
2018-07-17T12:14:50.061Z,33.15
2018-07-17T12:19:42.779Z,33.25
2018-07-17T12:24:35.352Z,33.33
2018-07-17T12:29:28.326Z,33.39
2018-07-17T12:34:21.189Z,33.55
2018-07-17T12:39:13.812Z,33.63
2018-07-17T12:44:06.446Z,33.65
2018-07-17T12:48:59.307Z,33.63
2018-07-17T12:53:51.926Z,33.68
2018-07-17T12:58:44.468Z,33.73
2018-07-17T13:03:37.079Z,33.81
2018-07-17T13:08:30.202Z,33.78
2018-07-17T13:13:22.795Z,33.85
2018-07-17T13:18:15.354Z,33.90
2018-07-17T13:23:07.893Z,33.96
2018-07-17T13:28:01.209Z,34.00
2018-07-17T13:32:53.769Z,34.05
2018-07-17T13:37:46.408Z,34.11
2018-07-17T13:42:38.984Z,34.16
2018-07-17T13:47:31.491Z,34.17
2018-07-17T13:52:24.033Z,34.18
2018-07-17T13:57:16.629Z,34.24
2018-07-17T14:02:09.441Z,34.30
2018-07-17T14:07:02.097Z,34.30
2018-07-17T14:11:54.641Z,34.27
2018-07-17T14:16:47.288Z,34.13
2018-07-17T14:21:39.884Z,33.91
2018-07-17T14:26:32.515Z,33.71
2018-07-17T14:31:25.190Z,33.60
2018-07-17T14:36:17.843Z,33.57
2018-07-17T14:41:10.403Z,33.49
2018-07-17T14:46:02.914Z,33.32
2018-07-17T14:50:55.532Z,33.22
2018-07-17T14:55:48.221Z,33.30
2018-07-17T15:00:40.924Z,33.34
2018-07-17T15:05:33.641Z,33.34
2018-07-17T15:10:26.215Z,33.37
2018-07-17T15:15:19.230Z,33.35
2018-07-17T15:20:12.123Z,33.22
2018-07-17T15:25:05.493Z,33.05
2018-07-17T15:29:58.087Z,32.87
2018-07-17T15:34:50.704Z,32.78
2018-07-17T15:39:43.340Z,32.66
2018-07-17T15:44:35.939Z,32.48
2018-07-17T15:49:28.540Z,32.38
2018-07-17T15:54:21.106Z,32.33
2018-07-17T15:59:13.799Z,32.26
2018-07-17T16:04:06.755Z,32.14
2018-07-17T16:08:59.564Z,32.00
2018-07-17T16:13:52.378Z,31.85
2018-07-17T16:18:44.801Z,31.73
2018-07-17T16:23:37.345Z,31.69
2018-07-17T16:28:29.901Z,31.69
2018-07-17T16:33:22.491Z,31.65
2018-07-17T16:38:15.144Z,31.61
2018-07-17T16:43:07.720Z,31.52
2018-07-17T16:48:00.322Z,31.31
2018-07-17T16:52:52.937Z,31.18
2018-07-17T16:57:45.674Z,31.02
2018-07-17T17:02:38.256Z,30.83
2018-07-17T17:07:30.899Z,30.68
2018-07-17T17:12:23.567Z,30.62
2018-07-17T17:17:16.251Z,30.49
2018-07-17T17:22:08.834Z,30.37
2018-07-17T17:27:01.545Z,30.27
2018-07-17T17:31:54.282Z,30.13
2018-07-17T17:36:46.960Z,30.00
2018-07-17T17:41:39.522Z,29.87
2018-07-17T17:46:32.139Z,29.82
2018-07-17T17:51:24.960Z,29.75
2018-07-17T17:56:17.504Z,29.68
2018-07-17T18:01:10.024Z,29.57
2018-07-17T18:06:02.626Z,29.51
2018-07-17T18:10:55.127Z,29.43
2018-07-17T18:15:47.709Z,29.36
2018-07-17T18:20:40.298Z,29.21
2018-07-17T18:25:32.934Z,29.12
2018-07-17T18:30:25.715Z,29.01
2018-07-17T18:35:18.302Z,28.93
2018-07-17T18:40:11.162Z,28.95
2018-07-17T18:45:03.795Z,28.90
2018-07-17T18:50:12.310Z,28.85
2018-07-17T18:54:49.177Z,28.80
2018-07-17T18:59:41.857Z,28.73
2018-07-17T19:04:34.342Z,28.67
2018-07-17T19:09:26.923Z,28.59
2018-07-17T19:14:19.634Z,28.56
2018-07-17T19:19:12.379Z,28.51
2018-07-17T19:24:05.044Z,28.45
2018-07-17T19:28:57.686Z,28.43
2018-07-17T19:33:50.316Z,28.35
2018-07-17T19:38:42.858Z,28.26
2018-07-17T19:43:35.480Z,28.15
2018-07-17T19:48:28.069Z,28.10
2018-07-17T19:53:20.651Z,28.08
2018-07-17T19:58:13.207Z,28.06
2018-07-17T20:03:05.775Z,28.05
2018-07-17T20:07:58.447Z,27.97
2018-07-17T20:12:51.088Z,27.92
2018-07-17T20:17:43.654Z,27.87
2018-07-17T20:22:36.240Z,27.78
2018-07-17T20:27:28.854Z,27.71
2018-07-17T20:32:21.402Z,27.62
2018-07-17T20:37:13.981Z,27.57
2018-07-17T20:42:06.489Z,27.54
2018-07-17T20:46:59.015Z,27.50
2018-07-17T20:51:51.552Z,27.39
2018-07-17T20:56:44.095Z,27.27
2018-07-17T21:01:36.617Z,27.15
2018-07-17T21:06:29.063Z,27.03
2018-07-17T21:11:21.577Z,26.88
2018-07-17T21:16:14.150Z,26.83
2018-07-17T21:21:06.638Z,26.77
2018-07-17T21:25:59.132Z,26.70
2018-07-17T21:30:51.717Z,26.65
2018-07-17T21:35:44.322Z,26.62
2018-07-17T21:40:36.821Z,26.59
2018-07-17T21:45:29.375Z,26.51
2018-07-17T21:50:21.943Z,26.45
2018-07-17T21:55:14.607Z,26.41
2018-07-17T22:00:08.920Z,26.40
2018-07-17T22:05:01.442Z,26.38
2018-07-17T22:09:54.020Z,26.32
2018-07-17T22:14:46.620Z,26.24
2018-07-17T22:19:39.157Z,26.19
2018-07-17T22:24:31.742Z,26.16
2018-07-17T22:29:24.300Z,26.15
2018-07-17T22:34:16.922Z,26.10
2018-07-17T22:39:09.959Z,26.06
2018-07-17T22:44:02.647Z,25.97
2018-07-17T22:48:55.258Z,25.90
2018-07-17T22:53:47.843Z,25.89
2018-07-17T22:58:40.385Z,25.83
2018-07-17T23:03:32.905Z,25.75
2018-07-17T23:08:25.410Z,25.71
2018-07-17T23:13:17.958Z,25.66
2018-07-17T23:18:10.528Z,25.59
2018-07-17T23:23:03.091Z,25.52
2018-07-17T23:27:56.388Z,25.49
2018-07-17T23:32:49.859Z,25.45
2018-07-17T23:37:42.370Z,25.37
2018-07-17T23:42:34.962Z,25.34
2018-07-17T23:47:27.503Z,25.29
2018-07-17T23:52:20.100Z,25.27
2018-07-17T23:57:12.710Z,25.23
